createdAt,value
2022-10-30T05:41:20.797Z,63.82
2022-10-30T05:43:49.340Z,65.76
2022-10-30T05:46:17.857Z,64.50
2022-10-30T05:48:47.281Z,62.51
2022-10-30T05:51:15.451Z,61.57
2022-10-30T05:53:50.351Z,59.11
2022-10-30T05:56:21.206Z,57.51
2022-10-30T05:58:50.388Z,58.36
2022-10-30T06:01:18.982Z,59.41
2022-10-30T06:03:47.908Z,62.78
2022-10-30T06:06:16.030Z,64.92
2022-10-30T06:08:45.507Z,63.91
2022-10-30T06:11:37.117Z,62.81
2022-10-30T06:14:05.803Z,61.21
2022-10-30T06:16:41.185Z,58.63
2022-10-30T06:19:26.195Z,56.90
2022-10-30T06:21:59.965Z,57.63
2022-10-30T07:18:42.128Z,61.94
2022-10-30T07:21:10.763Z,61.90
2022-10-30T07:23:39.054Z,61.60
2022-10-30T07:26:39.814Z,59.28
2022-10-30T07:29:33.786Z,58.02
2022-10-30T07:32:13.926Z,58.81
2022-10-30T07:34:50.827Z,60.54
2022-10-30T07:37:25.345Z,65.02
2022-10-30T07:40:16.391Z,65.02
2022-10-30T07:43:05.162Z,63.53
2022-10-30T07:45:39.528Z,61.55
2022-10-30T07:48:26.955Z,61.40
2022-10-30T07:51:16.047Z,58.85
2022-10-30T07:53:44.627Z,57.82
2022-10-30T07:56:12.972Z,58.51
2022-10-30T07:59:07.616Z,59.70
2022-10-30T08:01:54.301Z,63.93
2022-10-30T08:04:33.104Z,63.96
2022-10-30T08:07:09.072Z,62.51
2022-10-30T08:09:38.061Z,61.13
2022-10-30T08:12:06.725Z,59.35
2022-10-30T08:14:35.306Z,58.50
2022-10-30T08:17:05.322Z,58.76
2022-10-30T08:19:34.009Z,60.53
2022-10-30T08:22:02.321Z,63.59
2022-10-30T08:24:33.236Z,64.15
2022-10-30T08:27:02.848Z,63.26
2022-10-30T08:29:32.565Z,62.76
2022-10-30T08:32:01.572Z,60.58
2022-10-30T08:34:59.090Z,57.97
2022-10-30T08:37:27.676Z,57.38
2022-10-30T08:39:55.806Z,57.83
2022-10-30T08:42:54.299Z,58.51
2022-10-30T08:45:29.709Z,59.40
2022-10-30T08:48:17.114Z,63.51
2022-10-30T08:50:45.979Z,63.81
2022-10-30T08:53:16.992Z,61.09
2022-10-30T08:55:46.759Z,57.78
2022-10-30T08:58:22.323Z,56.30
2022-10-30T09:00:50.890Z,57.46
2022-10-30T09:03:18.994Z,57.79
2022-10-30T09:06:06.791Z,58.34
2022-10-30T09:08:53.916Z,59.29
2022-10-30T09:11:34.230Z,59.98
2022-10-30T09:14:02.301Z,63.23
2022-10-30T09:16:30.570Z,63.58
2022-10-30T09:19:02.057Z,61.72
2022-10-30T09:21:31.357Z,58.73
2022-10-30T09:23:59.548Z,57.12
2022-10-30T09:26:37.545Z,57.25
2022-10-30T09:29:12.966Z,58.14
2022-10-30T09:32:00.938Z,59.06
2022-10-30T09:34:31.517Z,60.55
2022-10-30T09:37:11.590Z,63.72
2022-10-30T09:39:39.838Z,64.40
2022-10-30T09:42:20.040Z,61.94
2022-10-30T09:45:29.430Z,58.07
2022-10-30T09:48:39.430Z,56.76
2022-10-30T09:51:25.609Z,57.36
2022-10-30T09:54:02.408Z,58.91
2022-10-30T09:56:48.069Z,60.07
2022-10-30T09:59:40.525Z,62.90
2022-10-30T10:02:36.161Z,65.29
2022-10-30T10:05:14.798Z,61.46
2022-10-30T10:08:10.393Z,58.42
2022-10-30T10:11:21.946Z,57.84
2022-10-30T10:14:09.617Z,59.39
2022-10-30T10:16:40.874Z,60.00
2022-10-30T10:19:19.344Z,63.87
2022-10-30T10:21:57.849Z,65.25
2022-10-30T10:24:30.401Z,62.48
2022-10-30T10:27:42.575Z,58.34
2022-10-30T10:30:16.011Z,56.51
2022-10-30T10:33:03.797Z,57.77
2022-10-30T10:35:52.695Z,58.59
2022-10-30T10:38:39.338Z,59.71
2022-10-30T10:41:41.575Z,64.18
2022-10-30T10:44:34.674Z,65.00
2022-10-30T10:47:12.073Z,59.65
2022-10-30T10:50:18.012Z,56.97
2022-10-30T10:53:02.541Z,57.22
2022-10-30T10:55:37.223Z,58.18
2022-10-30T10:58:24.452Z,59.47
2022-10-30T11:00:53.611Z,59.93
2022-10-30T11:03:28.229Z,63.96
2022-10-30T11:06:17.833Z,64.88
2022-10-30T11:08:47.060Z,62.78
2022-10-30T11:11:15.697Z,58.97
2022-10-30T11:13:45.729Z,56.71
2022-10-30T11:16:32.102Z,56.99
2022-10-30T11:19:03.808Z,57.90
2022-10-30T11:21:38.276Z,59.57
2022-10-30T11:24:33.729Z,59.95
2022-10-30T11:27:24.113Z,65.41
2022-10-30T11:30:05.976Z,65.17
2022-10-30T11:32:35.095Z,58.87
2022-10-30T11:35:16.086Z,55.83
2022-10-30T11:37:46.552Z,56.23
2022-10-30T11:40:15.121Z,57.13
2022-10-30T11:43:06.802Z,58.02
2022-10-30T11:45:40.200Z,58.41
2022-10-30T11:48:23.205Z,59.77
2022-10-30T11:50:56.508Z,64.49
2022-10-30T11:53:51.217Z,65.22
2022-10-30T11:56:22.165Z,60.03
2022-10-30T11:58:57.402Z,56.47
2022-10-30T12:01:36.435Z,56.68
2022-10-30T12:04:22.422Z,57.24
2022-10-30T12:07:08.231Z,58.03
2022-10-30T12:09:45.287Z,59.25
2022-10-30T12:12:33.072Z,60.22
2022-10-30T12:15:14.833Z,65.09
2022-10-30T12:17:52.811Z,65.86
2022-10-30T12:20:21.851Z,59.76
2022-10-30T12:22:50.494Z,56.93
2022-10-30T12:25:32.802Z,57.15
2022-10-30T12:28:16.954Z,57.72
2022-10-30T12:30:51.466Z,58.58
2022-10-30T12:33:31.879Z,59.63
2022-10-30T12:36:05.727Z,60.36
2022-10-30T12:38:52.748Z,64.63
2022-10-30T12:41:33.115Z,66.91
2022-10-30T12:44:13.774Z,62.86
2022-10-30T12:46:47.687Z,57.94
2022-10-30T12:49:31.502Z,55.32
2022-10-30T12:52:34.049Z,55.47
2022-10-30T12:55:08.140Z,55.96
2022-10-30T12:57:53.810Z,57.42
2022-10-30T13:00:22.128Z,58.35
2022-10-30T13:03:00.832Z,59.41
2022-10-30T13:05:40.250Z,60.01
2022-10-30T13:08:33.642Z,64.36
2022-10-30T13:11:17.872Z,66.01
2022-10-30T13:13:50.378Z,60.26
2022-10-30T13:16:25.982Z,57.00
2022-10-30T13:18:58.010Z,56.98
2022-10-30T13:21:52.466Z,57.14
2022-10-30T13:24:28.085Z,56.27
2022-10-30T13:27:05.281Z,58.76
2022-10-30T13:30:19.721Z,59.69
2022-10-30T13:33:15.878Z,59.86
2022-10-30T13:36:05.840Z,65.68
2022-10-30T13:39:08.309Z,66.02
2022-10-30T13:41:43.454Z,63.30
2022-10-30T13:44:31.495Z,58.44
2022-10-30T13:47:21.893Z,55.99
2022-10-30T13:50:15.950Z,56.05
2022-10-30T13:52:49.882Z,56.85
2022-10-30T13:55:24.169Z,58.17
2022-10-30T13:58:19.817Z,59.07
2022-10-30T14:01:13.357Z,59.44
2022-10-30T14:04:20.376Z,60.19
2022-10-30T14:07:08.131Z,65.87
2022-10-30T14:09:43.615Z,65.02
2022-10-30T14:12:50.019Z,61.75
2022-10-30T14:15:24.562Z,58.70
2022-10-30T14:18:11.783Z,56.53
2022-10-30T14:20:41.582Z,56.71
2022-10-30T14:23:19.863Z,57.80
2022-10-30T14:26:06.608Z,58.49
2022-10-30T14:28:45.391Z,59.16
2022-10-30T14:31:19.726Z,60.21
2022-10-30T14:33:49.598Z,64.03
2022-10-30T14:36:19.295Z,65.45
2022-10-30T14:39:09.239Z,63.26
2022-10-30T14:41:59.498Z,59.42
2022-10-30T14:44:39.323Z,56.59
2022-10-30T14:47:45.322Z,57.11
2022-10-30T14:50:37.184Z,57.42
2022-10-30T14:53:30.193Z,58.60
2022-10-30T14:56:14.967Z,59.44
2022-10-30T14:58:43.447Z,63.89
2022-10-30T15:01:20.641Z,64.48
2022-10-30T15:04:00.561Z,62.18
2022-10-30T15:06:51.616Z,58.13
2022-10-30T15:09:32.265Z,55.86
2022-10-30T15:12:17.504Z,56.34
2022-10-30T15:14:53.885Z,57.10
2022-10-30T15:17:33.255Z,58.16
2022-10-30T15:20:05.155Z,58.85
2022-10-30T15:22:35.406Z,59.57
2022-10-30T15:25:05.039Z,60.22
2022-10-30T15:27:35.809Z,63.33
2022-10-30T15:30:05.089Z,65.27
2022-10-30T15:32:33.915Z,62.35
2022-10-30T15:35:05.566Z,58.80
2022-10-30T15:37:34.244Z,56.50
2022-10-30T15:40:20.235Z,56.74
2022-10-30T15:42:51.872Z,57.24
2022-10-30T15:45:44.819Z,58.42
2022-10-30T15:48:28.177Z,58.85
2022-10-30T15:51:04.190Z,59.95
2022-10-30T15:53:45.369Z,63.41
2022-10-30T15:56:24.438Z,65.59
2022-10-30T15:59:02.278Z,63.63
2022-10-30T16:01:38.909Z,59.95
2022-10-30T16:04:19.564Z,57.10
2022-10-30T16:06:57.889Z,57.15
2022-10-30T16:09:28.411Z,57.93
2022-10-30T16:12:00.886Z,58.97
2022-10-30T16:14:33.007Z,59.75
2022-10-30T16:17:03.996Z,62.64
2022-10-30T16:19:47.243Z,64.73
2022-10-30T16:22:24.411Z,63.00
2022-10-30T16:24:55.555Z,59.79
2022-10-30T16:27:26.025Z,57.45
2022-10-30T16:30:00.278Z,57.72
2022-10-30T16:32:31.647Z,58.52
2022-10-30T16:35:02.850Z,59.48
2022-10-30T16:37:36.976Z,60.35
2022-10-30T16:40:16.636Z,63.24
2022-10-30T16:42:58.481Z,65.81
2022-10-30T16:45:34.119Z,64.78
2022-10-30T16:48:09.502Z,64.90
2022-10-30T16:50:39.122Z,59.60
2022-10-30T16:53:24.277Z,56.95
2022-10-30T16:55:55.139Z,56.96
2022-10-30T16:58:30.470Z,58.03
2022-10-30T17:01:07.111Z,58.90
2022-10-30T17:03:41.594Z,59.81
2022-10-30T17:06:27.754Z,63.42
2022-10-30T17:08:59.857Z,66.16
2022-10-30T17:11:46.843Z,63.51
2022-10-30T17:14:20.456Z,59.70
2022-10-30T17:17:00.295Z,57.56
2022-10-30T17:19:31.562Z,57.77
2022-10-30T17:22:04.020Z,58.76
2022-10-30T17:24:34.017Z,59.25
2022-10-30T17:27:04.925Z,58.21
2022-10-30T17:29:53.915Z,63.81
2022-10-30T17:32:23.464Z,66.11
2022-10-30T17:35:00.810Z,63.41
2022-10-30T17:37:29.464Z,62.04
2022-10-30T17:40:00.724Z,58.66
2022-10-30T17:42:28.911Z,56.73
2022-10-30T17:44:57.663Z,57.16
2022-10-30T17:47:29.146Z,58.16
2022-10-30T17:49:57.629Z,59.17
2022-10-30T17:52:26.333Z,60.24
2022-10-30T17:54:58.112Z,63.58
2022-10-30T17:57:27.181Z,65.73
2022-10-30T17:59:55.334Z,63.66
2022-10-30T18:02:23.863Z,61.27
2022-10-30T18:04:54.903Z,59.09
2022-10-30T18:07:23.048Z,57.51
2022-10-30T18:09:51.511Z,58.12
2022-10-30T18:12:20.063Z,59.06
2022-10-30T18:14:48.258Z,60.08
2022-10-30T18:17:16.543Z,63.63
2022-10-30T18:19:44.755Z,64.81
2022-10-30T18:22:14.011Z,63.63
2022-10-30T18:24:43.246Z,61.77
2022-10-30T18:27:11.669Z,59.49
2022-10-30T18:29:40.142Z,57.16
2022-10-30T18:32:10.293Z,57.38
2022-10-30T18:34:38.389Z,58.28
2022-10-30T18:37:07.078Z,59.42
2022-10-30T18:42:09.573Z,65.64
2022-10-30T18:44:38.049Z,63.28
2022-10-30T18:47:11.108Z,60.02
2022-10-30T18:49:39.814Z,57.20
2022-10-30T18:52:09.184Z,57.62
2022-10-30T18:54:37.398Z,58.51
2022-10-30T18:57:05.966Z,59.64
2022-10-30T18:59:35.070Z,63.28
2022-10-30T19:02:03.546Z,65.27
2022-10-30T19:04:32.332Z,63.72
2022-10-30T19:07:00.463Z,61.89
2022-10-30T19:09:28.599Z,59.28
2022-10-30T19:11:57.185Z,57.13
2022-10-30T19:14:25.624Z,57.48
2022-10-30T19:16:53.716Z,58.51
2022-10-30T19:19:22.426Z,59.62
2022-10-30T19:21:51.964Z,62.91
2022-10-30T19:24:20.135Z,63.87
2022-10-30T19:26:48.486Z,63.62
2022-10-30T19:29:19.657Z,62.55
2022-10-30T19:31:47.735Z,62.00
2022-10-30T19:34:16.534Z,58.81
2022-10-30T19:36:44.805Z,57.15
2022-10-30T19:39:17.048Z,57.80
2022-10-30T19:41:46.289Z,58.71
2022-10-30T19:44:14.401Z,59.92
